Victoria, British Columbia

2:31 AM PDT on September 01, 2015 (GMT -0700)
Victoria International | | Change Station
CLOSE
Current Station
Airport
Location: Victoria,
Elevation: 62 ft
Nearby Weather Stations

Elev 62 ft 48.65 °N, 123.43 °W | Updated 13 minutes ago

Light Rain
Light Rain Mist
57 °F
Feels Like 57 °F
N
6
Wind Variable Wind from ESE

Today is forecast to be nearly the same temperature as yesterday.

Today
High -- | Low -- °F
--% Chance of Precip.
Yesterday
High -- | Low -- °F
Precip. -- in
6:30 AM 7:55 PM
Waning Gibbous, 90% visible
Pressure 29.83 in
Visibility 1.2 miles
Clouds Scattered Clouds 400 ft
Overcast 2600 ft
Dew Point 57 °F
Humidity 100%
Rainfall 0.00 in
Snow Depth Not available.
UV 0 out of 12
Pollen Not available.
Air Quality Not available.
Flu Activity Not available.
SPECI CYYJ 010918Z 11005KT 1 1/4SM -RA BR SCT004 OVC026 14/14 A2983 RMK SF3SC5 SLP102
Pressure 29.83 in
Visibility 1.2 miles
Clouds Scattered Clouds 400 ft
Overcast 2600 ft
Dew Point 57 °F
Humidity 100%
Rainfall 0.00 in
Snow Depth Not available.
UV 0 out of 12
Pollen Not available.
Air Quality Not available.
Flu Activity Not available.
SPECI CYYJ 010918Z 11005KT 1 1/4SM -RA BR SCT004 OVC026 14/14 A2983 RMK SF3SC5 SLP102

10-Day Weather Forecast

×

Almanac

Astronomy

Sep. 01, 2015 Rise Set
Actual Time
Civil Twilight
Nautical Twilight
Astronomical Twilight
Moon
Length of Visible Light
Length of Day
Tomorrow will be .
, % of the Moon is Illuminated

Today's Extremes

Country Highs Country Lows

Community

WunderPhotos

Upload Photos

1,851,499 photos uploaded!

WunderBlogs® & News

Nearby

Air Quality

  Air Quality AQ Index Pollutant
Not available.

Snow Depth

Station Depth Elevation

Earthquake Activity

City Distance Mag. Time & Date
Minimum magnitude displayed is 2.5.

Coastal Water Temperatures

Place Temperature

Stations

Nearby Weather Stations

Station Location Temp. Windchill Dew Point Humidity Wind Precip. Elev Updated Type